sensor_id;sensor_type;location;lat;lon;timestamp;pressure;altitude;pressure_sealevel;temperature;humidity
72636;BME280;60679;48.888;15.544;2023-02-18T00:02:16;96367.47;;;9.48;70.47
72636;BME280;60679;48.888;15.544;2023-02-18T00:04:42;96380.75;;;9.43;70.68
72636;BME280;60679;48.888;15.544;2023-02-18T00:07:07;96375.78;;;9.40;70.63
72636;BME280;60679;48.888;15.544;2023-02-18T00:09:33;96373.50;;;9.37;70.73
72636;BME280;60679;48.888;15.544;2023-02-18T00:11:58;96382.41;;;9.38;70.71
72636;BME280;60679;48.888;15.544;2023-02-18T00:14:24;96385.28;;;9.43;70.71
72636;BME280;60679;48.888;15.544;2023-02-18T00:16:49;96380.13;;;9.41;70.60
72636;BME280;60679;48.888;15.544;2023-02-18T00:19:18;96382.66;;;9.36;70.56
72636;BME280;60679;48.888;15.544;2023-02-18T00:21:44;96378.50;;;9.34;70.82
72636;BME280;60679;48.888;15.544;2023-02-18T00:24:13;96383.50;;;9.30;70.65
72636;BME280;60679;48.888;15.544;2023-02-18T00:26:40;96368.78;;;9.26;70.86
72636;BME280;60679;48.888;15.544;2023-02-18T00:29:05;96366.31;;;9.24;70.70
72636;BME280;60679;48.888;15.544;2023-02-18T00:31:35;96369.19;;;9.23;71.04
72636;BME280;60679;48.888;15.544;2023-02-18T00:34:03;96370.69;;;9.12;70.67
72636;BME280;60679;48.888;15.544;2023-02-18T00:36:28;96369.69;;;9.07;70.95
72636;BME280;60679;48.888;15.544;2023-02-18T00:38:57;96367.81;;;9.01;70.88
72636;BME280;60679;48.888;15.544;2023-02-18T00:41:25;96363.09;;;8.96;71.08
72636;BME280;60679;48.888;15.544;2023-02-18T00:43:50;96372.59;;;8.92;71.08
72636;BME280;60679;48.888;15.544;2023-02-18T00:46:17;96369.72;;;8.94;71.11
72636;BME280;60679;48.888;15.544;2023-02-18T00:48:43;96362.66;;;8.99;71.29
72636;BME280;60679;48.888;15.544;2023-02-18T00:51:09;96367.03;;;8.94;70.84
72636;BME280;60679;48.888;15.544;2023-02-18T00:53:35;96359.38;;;8.84;70.97
72636;BME280;60679;48.888;15.544;2023-02-18T00:56:05;96365.41;;;8.86;71.20
72636;BME280;60679;48.888;15.544;2023-02-18T00:58:31;96351.47;;;8.89;71.14
72636;BME280;60679;48.888;15.544;2023-02-18T01:00:56;96355.25;;;8.88;71.26
72636;BME280;60679;48.888;15.544;2023-02-18T01:03:22;96358.97;;;8.87;71.18
72636;BME280;60679;48.888;15.544;2023-02-18T01:05:50;96353.56;;;8.94;70.95
72636;BME280;60679;48.888;15.544;2023-02-18T01:08:17;96359.16;;;8.92;71.33
72636;BME280;60679;48.888;15.544;2023-02-18T01:10:45;96367.63;;;8.96;71.18
72636;BME280;60679;48.888;15.544;2023-02-18T01:13:12;96350.81;;;9.07;71.34
72636;BME280;60679;48.888;15.544;2023-02-18T01:15:39;96358.06;;;9.06;71.08
72636;BME280;60679;48.888;15.544;2023-02-18T01:18:06;96365.34;;;9.06;71.13
72636;BME280;60679;48.888;15.544;2023-02-18T01:20:35;96356.81;;;9.09;71.19
72636;BME280;60679;48.888;15.544;2023-02-18T01:23:02;96356.44;;;9.05;71.22
72636;BME280;60679;48.888;15.544;2023-02-18T01:25:28;96346.50;;;8.93;71.07
72636;BME280;60679;48.888;15.544;2023-02-18T01:27:53;96357.94;;;8.88;71.44
72636;BME280;60679;48.888;15.544;2023-02-18T01:30:18;96362.91;;;8.91;71.47
72636;BME280;60679;48.888;15.544;2023-02-18T01:32:45;96368.66;;;9.01;71.27
72636;BME280;60679;48.888;15.544;2023-02-18T01:35:14;96360.38;;;9.03;71.42
72636;BME280;60679;48.888;15.544;2023-02-18T01:37:39;96361.41;;;9.08;71.22
72636;BME280;60679;48.888;15.544;2023-02-18T01:40:06;96359.91;;;9.12;71.19
72636;BME280;60679;48.888;15.544;2023-02-18T01:42:32;96361.16;;;9.16;71.24
72636;BME280;60679;48.888;15.544;2023-02-18T01:48:04;96358.06;;;9.06;71.35
72636;BME280;60679;48.888;15.544;2023-02-18T01:50:35;96349.19;;;8.99;71.40
72636;BME280;60679;48.888;15.544;2023-02-18T01:53:02;96358.31;;;8.98;71.55
72636;BME280;60679;48.888;15.544;2023-02-18T01:55:28;96349.81;;;8.95;71.09
72636;BME280;60679;48.888;15.544;2023-02-18T01:57:53;96352.75;;;8.87;71.45
72636;BME280;60679;48.888;15.544;2023-02-18T02:00:20;96360.44;;;8.77;71.61
72636;BME280;60679;48.888;15.544;2023-02-18T02:02:50;96354.22;;;8.83;71.70
72636;BME280;60679;48.888;15.544;2023-02-18T02:05:20;96363.50;;;8.87;71.71
72636;BME280;60679;48.888;15.544;2023-02-18T02:07:50;96347.53;;;8.98;71.44
72636;BME280;60679;48.888;15.544;2023-02-18T02:10:17;96361.00;;;9.05;71.48
72636;BME280;60679;48.888;15.544;2023-02-18T02:34:37;96356.81;;;9.09;71.42
72636;BME280;60679;48.888;15.544;2023-02-18T02:36:44;96357.28;;;9.06;71.58
72636;BME280;60679;48.888;15.544;2023-02-18T02:39:28;96353.75;;;8.99;71.43
72636;BME280;60679;48.888;15.544;2023-02-18T02:42:05;96361.84;;;8.99;71.77
72636;BME280;60679;48.888;15.544;2023-02-18T02:47:08;96355.66;;;8.92;71.44
72636;BME280;60679;48.888;15.544;2023-02-18T02:49:45;96350.03;;;8.87;71.55
72636;BME280;60679;48.888;15.544;2023-02-18T02:52:16;96363.72;;;8.85;71.65
72636;BME280;60679;48.888;15.544;2023-02-18T02:54:44;96362.91;;;8.85;71.72
72636;BME280;60679;48.888;15.544;2023-02-18T02:59:43;96363.94;;;8.84;71.78
72636;BME280;60679;48.888;15.544;2023-02-18T03:15:39;96369.53;;;8.82;72.13
72636;BME280;60679;48.888;15.544;2023-02-18T03:18:15;96369.53;;;8.82;72.08
72636;BME280;60679;48.888;15.544;2023-02-18T03:20:50;96376.19;;;8.80;71.85
72636;BME280;60679;48.888;15.544;2023-02-18T03:23:22;96381.97;;;8.77;72.04
72636;BME280;60679;48.888;15.544;2023-02-18T03:25:50;96385.91;;;8.74;71.96
72636;BME280;60679;48.888;15.544;2023-02-18T03:28:20;96386.94;;;8.73;72.05
72636;BME280;60679;48.888;15.544;2023-02-18T03:30:50;96391.09;;;8.69;72.17
72636;BME280;60679;48.888;15.544;2023-02-18T03:33:21;96401.66;;;8.64;72.04
72636;BME280;60679;48.888;15.544;2023-02-18T03:35:52;96392.16;;;8.55;72.25
72636;BME280;60679;48.888;15.544;2023-02-18T03:38:30;96396.91;;;8.46;72.08
72636;BME280;60679;48.888;15.544;2023-02-18T03:40:56;96401.44;;;8.39;72.24
72636;BME280;60679;48.888;15.544;2023-02-18T03:43:22;96398.75;;;8.33;72.35
72636;BME280;60679;48.888;15.544;2023-02-18T03:45:48;96391.13;;;8.30;72.36
72636;BME280;60679;48.888;15.544;2023-02-18T03:48:13;96396.88;;;8.27;72.45
72636;BME280;60679;48.888;15.544;2023-02-18T03:50:39;96392.34;;;8.27;72.44
72636;BME280;60679;48.888;15.544;2023-02-18T03:53:04;96395.03;;;8.27;72.54
72636;BME280;60679;48.888;15.544;2023-02-18T03:55:30;96402.50;;;8.32;72.34
72636;BME280;60679;48.888;15.544;2023-02-18T03:57:55;96397.53;;;8.29;72.47
72636;BME280;60679;48.888;15.544;2023-02-18T04:00:21;96408.06;;;8.30;72.40
72636;BME280;60679;48.888;15.544;2023-02-18T04:02:49;96399.81;;;8.32;72.86
72636;BME280;60679;48.888;15.544;2023-02-18T04:05:15;96406.63;;;8.34;72.32
72636;BME280;60679;48.888;15.544;2023-02-18T04:07:40;96407.66;;;8.33;72.53
72636;BME280;60679;48.888;15.544;2023-02-18T04:10:09;96410.75;;;8.30;72.47
72636;BME280;60679;48.888;15.544;2023-02-18T04:12:35;96413.03;;;8.27;72.50
72636;BME280;60679;48.888;15.544;2023-02-18T04:15:04;96403.06;;;8.21;72.55
72636;BME280;60679;48.888;15.544;2023-02-18T04:17:32;96414.66;;;8.21;72.68
72636;BME280;60679;48.888;15.544;2023-02-18T04:20:05;96410.31;;;8.20;72.70
72636;BME280;60679;48.888;15.544;2023-02-18T04:22:31;96415.47;;;8.22;72.79
72636;BME280;60679;48.888;15.544;2023-02-18T04:25:01;96415.88;;;8.19;72.53
72636;BME280;60679;48.888;15.544;2023-02-18T04:27:27;96413.84;;;8.21;72.79
72636;BME280;60679;48.888;15.544;2023-02-18T04:29:52;96423.34;;;8.23;72.72
72636;BME280;60679;48.888;15.544;2023-02-18T04:32:21;96430.00;;;8.27;72.58
72636;BME280;60679;48.888;15.544;2023-02-18T04:34:49;96429.75;;;8.22;72.62
72636;BME280;60679;48.888;15.544;2023-02-18T04:37:14;96420.06;;;8.21;72.63
72636;BME280;60679;48.888;15.544;2023-02-18T04:39:40;96423.53;;;8.22;72.77
72636;BME280;60679;48.888;15.544;2023-02-18T04:42:10;96421.91;;;8.21;72.80
72636;BME280;60679;48.888;15.544;2023-02-18T04:45:11;96427.88;;;8.16;72.68
72636;BME280;60679;48.888;15.544;2023-02-18T04:48:09;96432.88;;;8.12;72.81
72636;BME280;60679;48.888;15.544;2023-02-18T04:51:18;96435.75;;;8.11;72.93
72636;BME280;60679;48.888;15.544;2023-02-18T04:53:48;96433.47;;;8.08;72.89
72636;BME280;60679;48.888;15.544;2023-02-18T04:56:16;96430.75;;;8.08;72.97
72636;BME280;60679;48.888;15.544;2023-02-18T04:58:55;96433.88;;;8.11;72.93
72636;BME280;60679;48.888;15.544;2023-02-18T05:01:22;96432.03;;;8.12;73.02
72636;BME280;60679;48.888;15.544;2023-02-18T05:03:53;96428.28;;;8.06;72.83
72636;BME280;60679;48.888;15.544;2023-02-18T05:06:27;96424.16;;;8.04;72.95
72636;BME280;60679;48.888;15.544;2023-02-18T05:08:52;96435.94;;;8.03;73.03
72636;BME280;60679;48.888;15.544;2023-02-18T05:11:18;96434.09;;;8.03;73.25
72636;BME280;60679;48.888;15.544;2023-02-18T05:13:44;96432.63;;;8.07;72.89
72636;BME280;60679;48.888;15.544;2023-02-18T05:16:12;96435.53;;;8.06;73.03
72636;BME280;60679;48.888;15.544;2023-02-18T05:18:38;96430.97;;;8.06;73.20
72636;BME280;60679;48.888;15.544;2023-02-18T05:21:04;96429.31;;;8.05;73.15
72636;BME280;60679;48.888;15.544;2023-02-18T05:23:30;96430.97;;;8.06;72.87
72636;BME280;60679;48.888;15.544;2023-02-18T05:25:58;96428.47;;;8.05;73.19
72636;BME280;60679;48.888;15.544;2023-02-18T05:28:24;96422.91;;;8.06;73.18
72636;BME280;60679;48.888;15.544;2023-02-18T05:30:50;96428.28;;;8.06;73.06
72636;BME280;60679;48.888;15.544;2023-02-18T05:33:17;96428.47;;;8.05;73.29
72636;BME280;60679;48.888;15.544;2023-02-18T05:35:43;96426.19;;;8.02;73.00
72636;BME280;60679;48.888;15.544;2023-02-18T05:38:08;96423.72;;;8.00;73.29
72636;BME280;60679;48.888;15.544;2023-02-18T05:40:34;96430.34;;;8.04;72.97
72636;BME280;60679;48.888;15.544;2023-02-18T05:43:02;96442.56;;;8.07;73.20
72636;BME280;60679;48.888;15.544;2023-02-18T05:45:28;96439.06;;;8.06;73.22
72636;BME280;60679;48.888;15.544;2023-02-18T05:47:53;96432.00;;;8.05;73.03
72636;BME280;60679;48.888;15.544;2023-02-18T05:50:19;96435.94;;;8.03;73.10
72636;BME280;60679;48.888;15.544;2023-02-18T05:52:44;96440.28;;;8.10;73.22
72636;BME280;60679;48.888;15.544;2023-02-18T05:55:10;96450.03;;;8.18;73.13
72636;BME280;60679;48.888;15.544;2023-02-18T05:57:37;96447.72;;;8.08;73.01
72636;BME280;60679;48.888;15.544;2023-02-18T06:00:04;96443.56;;;7.93;73.19
72636;BME280;60679;48.888;15.544;2023-02-18T06:02:32;96447.47;;;7.84;73.30
72636;BME280;60679;48.888;15.544;2023-02-18T06:05:06;96452.81;;;7.77;73.37
72636;BME280;60679;48.888;15.544;2023-02-18T06:07:32;96448.69;;;7.75;73.71
72636;BME280;60679;48.888;15.544;2023-02-18T06:09:57;96442.69;;;7.73;73.20
72636;BME280;60679;48.888;15.544;2023-02-18T06:12:23;96455.28;;;7.72;73.48
72636;BME280;60679;48.888;15.544;2023-02-18T06:14:49;96453.44;;;7.73;73.46
72636;BME280;60679;48.888;15.544;2023-02-18T06:17:15;96437.94;;;7.75;73.13
72636;BME280;60679;48.888;15.544;2023-02-18T06:19:44;96446.81;;;7.75;73.37
72636;BME280;60679;48.888;15.544;2023-02-18T06:22:10;96443.72;;;7.78;73.49
72636;BME280;60679;48.888;15.544;2023-02-18T06:24:38;96447.03;;;7.80;73.71
72636;BME280;60679;48.888;15.544;2023-02-18T06:27:04;96448.06;;;7.79;73.59
72636;BME280;60679;48.888;15.544;2023-02-18T06:29:33;96440.66;;;7.81;73.55
72636;BME280;60679;48.888;15.544;2023-02-18T06:32:00;96432.78;;;7.86;73.28
72636;BME280;60679;48.888;15.544;2023-02-18T06:34:26;96435.09;;;7.89;73.37
72636;BME280;60679;48.888;15.544;2023-02-18T06:36:55;96425.78;;;7.92;73.38
72636;BME280;60679;48.888;15.544;2023-02-18T06:39:21;96426.22;;;7.95;73.32
72636;BME280;60679;48.888;15.544;2023-02-18T06:41:46;96421.88;;;8.01;73.24
72636;BME280;60679;48.888;15.544;2023-02-18T06:44:12;96435.13;;;8.09;73.11
72636;BME280;60679;48.888;15.544;2023-02-18T06:46:41;96434.31;;;8.22;72.96
72636;BME280;60679;48.888;15.544;2023-02-18T06:49:06;96435.56;;;8.26;72.88
72636;BME280;60679;48.888;15.544;2023-02-18T06:51:32;96441.00;;;8.32;72.78
72636;BME280;60679;48.888;15.544;2023-02-18T06:53:58;96434.97;;;8.30;72.87
72636;BME280;60679;48.888;15.544;2023-02-18T06:56:23;96435.38;;;8.34;72.70
72636;BME280;60679;48.888;15.544;2023-02-18T06:58:49;96429.81;;;8.35;72.75
72636;BME280;60679;48.888;15.544;2023-02-18T07:01:14;96430.44;;;8.37;72.60
72636;BME280;60679;48.888;15.544;2023-02-18T07:03:40;96444.91;;;8.36;72.73
72636;BME280;60679;48.888;15.544;2023-02-18T07:06:09;96431.88;;;8.33;72.81
72636;BME280;60679;48.888;15.544;2023-02-18T07:08:34;96438.69;;;8.36;72.73
72636;BME280;60679;48.888;15.544;2023-02-18T07:11:02;96443.91;;;8.44;72.56
72636;BME280;60679;48.888;15.544;2023-02-18T07:13:30;96451.13;;;8.50;72.68
72636;BME280;60679;48.888;15.544;2023-02-18T07:15:56;96445.97;;;8.55;72.57
72636;BME280;60679;48.888;15.544;2023-02-18T07:18:21;96445.34;;;8.66;72.45
72636;BME280;60679;48.888;15.544;2023-02-18T07:20:47;96442.44;;;8.81;72.05
72636;BME280;60679;48.888;15.544;2023-02-18T07:23:12;96436.84;;;8.82;72.13
72636;BME280;60679;48.888;15.544;2023-02-18T07:25:38;96436.47;;;8.72;72.13
72636;BME280;60679;48.888;15.544;2023-02-18T07:28:04;96439.56;;;8.69;72.43
72636;BME280;60679;48.888;15.544;2023-02-18T07:30:30;96441.84;;;8.72;72.48
72636;BME280;60679;48.888;15.544;2023-02-18T07:32:58;96447.22;;;8.72;72.55
72636;BME280;60679;48.888;15.544;2023-02-18T07:35:24;96437.47;;;8.84;72.23
72636;BME280;60679;48.888;15.544;2023-02-18T07:37:49;96429.38;;;8.97;72.00
72636;BME280;60679;48.888;15.544;2023-02-18T07:40:20;96430.19;;;9.11;71.58
72636;BME280;60679;48.888;15.544;2023-02-18T07:42:46;96429.78;;;9.07;71.85
72636;BME280;60679;48.888;15.544;2023-02-18T07:45:12;96423.78;;;9.05;71.93
72636;BME280;60679;48.888;15.544;2023-02-18T07:47:38;96419.00;;;9.01;72.07
72636;BME280;60679;48.888;15.544;2023-02-18T07:50:10;96409.88;;;9.08;71.91
72636;BME280;60679;48.888;15.544;2023-02-18T07:52:35;96416.53;;;9.06;71.87
72636;BME280;60679;48.888;15.544;2023-02-18T07:55:01;96421.03;;;9.25;71.74
72636;BME280;60679;48.888;15.544;2023-02-18T07:57:26;96417.69;;;9.23;71.80
72636;BME280;60679;48.888;15.544;2023-02-18T07:59:55;96420.44;;;9.10;72.12
72636;BME280;60679;48.888;15.544;2023-02-18T08:02:22;96421.03;;;9.12;72.29
72636;BME280;60679;48.888;15.544;2023-02-18T08:04:48;96420.78;;;9.33;71.74
72636;BME280;60679;48.888;15.544;2023-02-18T08:07:16;96422.47;;;9.78;70.82
72636;BME280;60679;48.888;15.544;2023-02-18T08:09:42;96424.28;;;9.91;70.67
72636;BME280;60679;48.888;15.544;2023-02-18T08:12:10;96407.19;;;9.66;71.44
72636;BME280;60679;48.888;15.544;2023-02-18T08:14:35;96415.50;;;9.64;71.40
72636;BME280;60679;48.888;15.544;2023-02-18T08:17:01;96410.88;;;9.71;71.27
72636;BME280;60679;48.888;15.544;2023-02-18T08:19:27;96391.66;;;9.99;70.71
72636;BME280;60679;48.888;15.544;2023-02-18T08:21:52;96399.53;;;10.63;69.21
72636;BME280;60679;48.888;15.544;2023-02-18T08:24:18;96400.22;;;11.01;68.66
72636;BME280;60679;48.888;15.544;2023-02-18T08:26:44;96390.91;;;11.52;68.09
72636;BME280;60679;48.888;15.544;2023-02-18T08:29:09;96397.91;;;11.78;67.89
72636;BME280;60679;48.888;15.544;2023-02-18T08:31:35;96381.88;;;13.23;65.41
72636;BME280;60679;48.888;15.544;2023-02-18T08:34:01;96377.25;;;13.01;66.70
72636;BME280;60679;48.888;15.544;2023-02-18T08:36:28;96385.28;;;12.31;67.36
72636;BME280;60679;48.888;15.544;2023-02-18T08:38:54;96377.97;;;12.20;67.10
72636;BME280;60679;48.888;15.544;2023-02-18T08:41:20;96377.59;;;11.87;67.73
72636;BME280;60679;48.888;15.544;2023-02-18T08:43:46;96375.00;;;11.62;68.22
72636;BME280;60679;48.888;15.544;2023-02-18T08:46:13;96382.22;;;11.50;68.42
72636;BME280;60679;48.888;15.544;2023-02-18T08:48:40;96373.28;;;11.31;68.94
72636;BME280;60679;48.888;15.544;2023-02-18T08:51:17;96373.88;;;11.15;69.45
72636;BME280;60679;48.888;15.544;2023-02-18T08:53:43;96377.00;;;11.12;69.45
72636;BME280;60679;48.888;15.544;2023-02-18T08:56:11;96370.38;;;11.15;69.37
72636;BME280;60679;48.888;15.544;2023-02-18T08:58:37;96378.22;;;11.16;69.45
72636;BME280;60679;48.888;15.544;2023-02-18T09:01:07;96367.88;;;11.13;69.52
72636;BME280;60679;48.888;15.544;2023-02-18T09:03:34;96371.34;;;11.20;69.38
72636;BME280;60679;48.888;15.544;2023-02-18T09:06:00;96375.81;;;11.08;69.78
72636;BME280;60679;48.888;15.544;2023-02-18T09:08:28;96362.97;;;11.03;69.98
72636;BME280;60679;48.888;15.544;2023-02-18T09:10:58;96358.31;;;10.92;70.20
72636;BME280;60679;48.888;15.544;2023-02-18T09:13:24;96365.59;;;11.10;69.97
72636;BME280;60679;48.888;15.544;2023-02-18T09:16:22;96359.13;;;11.84;68.51
72636;BME280;60679;48.888;15.544;2023-02-18T09:18:47;96355.09;;;12.81;66.31
72636;BME280;60679;48.888;15.544;2023-02-18T09:21:14;96344.47;;;12.91;66.20
72636;BME280;60679;48.888;15.544;2023-02-18T09:23:45;96353.66;;;12.55;66.99
72636;BME280;60679;48.888;15.544;2023-02-18T09:26:13;96350.16;;;12.13;67.80
72636;BME280;60679;48.888;15.544;2023-02-18T09:28:42;96364.84;;;12.05;67.96
72636;BME280;60679;48.888;15.544;2023-02-18T09:31:12;96358.13;;;11.96;68.18
72636;BME280;60679;48.888;15.544;2023-02-18T09:33:43;96355.75;;;12.30;67.31
72636;BME280;60679;48.888;15.544;2023-02-18T09:36:09;96361.47;;;12.74;66.14
72636;BME280;60679;48.888;15.544;2023-02-18T09:41:53;96355.06;;;13.39;65.02
72636;BME280;60679;48.888;15.544;2023-02-18T09:44:30;96361.91;;;14.09;63.61
72636;BME280;60679;48.888;15.544;2023-02-18T09:47:10;96347.63;;;14.75;62.28
72636;BME280;60679;48.888;15.544;2023-02-18T09:49:40;96340.53;;;15.29;61.93
72636;BME280;60679;48.888;15.544;2023-02-18T09:52:13;96346.88;;;14.63;62.83
72636;BME280;60679;48.888;15.544;2023-02-18T09:54:42;96350.06;;;14.43;63.11
72636;BME280;60679;48.888;15.544;2023-02-18T09:57:40;96347.72;;;13.91;63.88
72636;BME280;60679;48.888;15.544;2023-02-18T10:00:14;96350.56;;;13.84;64.01
72636;BME280;60679;48.888;15.544;2023-02-18T10:02:57;96337.66;;;14.03;63.44
72636;BME280;60679;48.888;15.544;2023-02-18T10:05:32;96338.31;;;14.71;62.27
72636;BME280;60679;48.888;15.544;2023-02-18T10:08:04;96338.44;;;15.15;61.82
72636;BME280;60679;48.888;15.544;2023-02-18T10:10:44;96328.97;;;15.00;61.82
72636;BME280;60679;48.888;15.544;2023-02-18T10:13:20;96336.75;;;16.49;58.94
72636;BME280;60679;48.888;15.544;2023-02-18T10:15:47;96323.25;;;17.38;56.99
72636;BME280;60679;48.888;15.544;2023-02-18T10:20:49;96327.75;;;20.55;52.32
72636;BME280;60679;48.888;15.544;2023-02-18T10:23:19;96320.56;;;19.61;53.87
72636;BME280;60679;48.888;15.544;2023-02-18T10:25:50;96328.25;;;19.34;53.87
72636;BME280;60679;48.888;15.544;2023-02-18T10:28:18;96320.81;;;18.08;55.96
72636;BME280;60679;48.888;15.544;2023-02-18T10:30:51;96317.53;;;19.57;52.61
72636;BME280;60679;48.888;15.544;2023-02-18T10:38:40;96286.06;;;23.90;46.49
72636;BME280;60679;48.888;15.544;2023-02-18T10:41:25;96294.13;;;24.14;45.86
72636;BME280;60679;48.888;15.544;2023-02-18T10:44:13;96283.47;;;24.21;45.48
72636;BME280;60679;48.888;15.544;2023-02-18T10:47:33;96269.91;;;23.70;46.34
72636;BME280;60679;48.888;15.544;2023-02-18T10:50:00;96278.41;;;23.87;45.55
72636;BME280;60679;48.888;15.544;2023-02-18T10:52:29;96251.72;;;24.68;44.24
72636;BME280;60679;48.888;15.544;2023-02-18T10:55:07;96265.69;;;25.69;43.29
72636;BME280;60679;48.888;15.544;2023-02-18T10:57:33;96259.31;;;26.08;42.76
72636;BME280;60679;48.888;15.544;2023-02-18T11:02:37;96249.13;;;21.74;48.87
72636;BME280;60679;48.888;15.544;2023-02-18T11:05:21;96231.94;;;22.43;47.76
72636;BME280;60679;48.888;15.544;2023-02-18T11:07:50;96244.50;;;21.93;48.29
72636;BME280;60679;48.888;15.544;2023-02-18T11:10:25;96260.22;;;21.21;49.74
72636;BME280;60679;48.888;15.544;2023-02-18T11:13:00;96246.16;;;17.93;56.01
72636;BME280;60679;48.888;15.544;2023-02-18T11:15:27;96258.84;;;16.90;58.00
72636;BME280;60679;48.888;15.544;2023-02-18T11:17:56;96259.22;;;16.03;59.64
72636;BME280;60679;48.888;15.544;2023-02-18T11:25:36;96244.84;;;14.56;62.52
72636;BME280;60679;48.888;15.544;2023-02-18T11:28:29;96233.16;;;14.38;62.87
72636;BME280;60679;48.888;15.544;2023-02-18T11:30:57;96225.91;;;14.11;63.67
72636;BME280;60679;48.888;15.544;2023-02-18T11:33:31;96232.25;;;14.16;63.56
72636;BME280;60679;48.888;15.544;2023-02-18T11:36:04;96223.75;;;14.13;63.70
72636;BME280;60679;48.888;15.544;2023-02-18T11:38:37;96220.59;;;14.71;62.49
72636;BME280;60679;48.888;15.544;2023-02-18T11:41:08;96215.44;;;15.83;59.76
72636;BME280;60679;48.888;15.544;2023-02-18T11:43:34;96200.44;;;16.12;59.18
72636;BME280;60679;48.888;15.544;2023-02-18T11:46:13;96208.44;;;15.65;60.30
72636;BME280;60679;48.888;15.544;2023-02-18T11:48:40;96199.03;;;15.51;59.97
72636;BME280;60679;48.888;15.544;2023-02-18T11:51:18;96179.31;;;15.17;60.62
72636;BME280;60679;48.888;15.544;2023-02-18T11:53:59;96183.03;;;18.70;54.01
72636;BME280;60679;48.888;15.544;2023-02-18T11:56:29;96173.69;;;18.91;53.55
72636;BME280;60679;48.888;15.544;2023-02-18T11:58:56;96170.44;;;23.67;44.93
72636;BME280;60679;48.888;15.544;2023-02-18T12:01:34;96166.00;;;21.63;48.18
72636;BME280;60679;48.888;15.544;2023-02-18T12:04:12;96160.09;;;17.95;54.23
72636;BME280;60679;48.888;15.544;2023-02-18T12:09:40;96170.75;;;15.52;59.07
72636;BME280;60679;48.888;15.544;2023-02-18T12:12:18;96162.59;;;15.84;58.42
72636;BME280;60679;48.888;15.544;2023-02-18T12:14:46;96177.84;;;15.80;58.76
72636;BME280;60679;48.888;15.544;2023-02-18T12:22:50;96169.78;;;14.16;61.78
72636;BME280;60679;48.888;15.544;2023-02-18T12:25:23;96159.34;;;15.87;57.76
72636;BME280;60679;48.888;15.544;2023-02-18T12:35:43;96152.41;;;13.51;63.02
72636;BME280;60679;48.888;15.544;2023-02-18T12:38:43;96153.91;;;14.08;61.93
72636;BME280;60679;48.888;15.544;2023-02-18T12:47:30;96122.38;;;24.92;41.76
72636;BME280;60679;48.888;15.544;2023-02-18T12:50:21;96113.06;;;24.57;42.08
72636;BME280;60679;48.888;15.544;2023-02-18T13:04:18;96090.34;;;20.34;48.95
72636;BME280;60679;48.888;15.544;2023-02-18T13:09:34;96075.16;;;19.84;49.72
72636;BME280;60679;48.888;15.544;2023-02-18T13:12:38;96076.72;;;19.61;50.21
72636;BME280;60679;48.888;15.544;2023-02-18T13:15:22;96084.06;;;18.37;52.65
72636;BME280;60679;48.888;15.544;2023-02-18T13:17:50;96074.72;;;17.02;55.31
72636;BME280;60679;48.888;15.544;2023-02-18T13:20:35;96071.69;;;16.84;55.63
72636;BME280;60679;48.888;15.544;2023-02-18T13:23:03;96080.59;;;16.59;55.94
72636;BME280;60679;48.888;15.544;2023-02-18T13:25:35;96073.72;;;17.44;54.40
72636;BME280;60679;48.888;15.544;2023-02-18T13:34:16;96049.41;;;21.08;47.98
72636;BME280;60679;48.888;15.544;2023-02-18T13:39:21;96054.63;;;21.28;46.97
72636;BME280;60679;48.888;15.544;2023-02-18T13:41:50;96045.25;;;22.04;45.61
72636;BME280;60679;48.888;15.544;2023-02-18T13:46:48;96045.13;;;20.31;49.45
72636;BME280;60679;48.888;15.544;2023-02-18T13:49:18;96034.06;;;19.50;50.85
72636;BME280;60679;48.888;15.544;2023-02-18T13:51:46;96052.97;;;18.13;53.15
72636;BME280;60679;48.888;15.544;2023-02-18T13:56:49;96048.56;;;17.16;54.66
72636;BME280;60679;48.888;15.544;2023-02-18T13:59:18;96041.34;;;16.13;56.60
72636;BME280;60679;48.888;15.544;2023-02-18T14:01:48;96028.56;;;15.13;58.77
72636;BME280;60679;48.888;15.544;2023-02-18T14:09:59;96026.25;;;14.73;59.21
72636;BME280;60679;48.888;15.544;2023-02-18T14:12:39;96011.69;;;14.58;59.00
72636;BME280;60679;48.888;15.544;2023-02-18T14:25:53;96003.09;;;13.62;60.24
72636;BME280;60679;48.888;15.544;2023-02-18T14:31:05;95999.25;;;13.08;61.19
72636;BME280;60679;48.888;15.544;2023-02-18T14:39:33;96008.00;;;12.99;61.08
72636;BME280;60679;48.888;15.544;2023-02-18T14:47:36;95989.69;;;12.89;61.03
72636;BME280;60679;48.888;15.544;2023-02-18T14:50:14;95998.06;;;12.88;61.03
72636;BME280;60679;48.888;15.544;2023-02-18T14:55:29;95971.53;;;12.45;61.83
72636;BME280;60679;48.888;15.544;2023-02-18T15:00:26;95982.00;;;12.53;61.45
72636;BME280;60679;48.888;15.544;2023-02-18T15:02:57;95988.47;;;12.52;61.61
72636;BME280;60679;48.888;15.544;2023-02-18T15:05:26;95986.72;;;12.46;61.85
72636;BME280;60679;48.888;15.544;2023-02-18T15:08:26;95971.25;;;12.58;61.37
72636;BME280;60679;48.888;15.544;2023-02-18T15:11:04;95974.69;;;12.53;61.27
72636;BME280;60679;48.888;15.544;2023-02-18T15:13:36;95959.22;;;12.37;61.61
72636;BME280;60679;48.888;15.544;2023-02-18T15:16:08;95970.09;;;12.26;61.54
72636;BME280;60679;48.888;15.544;2023-02-18T15:18:40;95962.94;;;12.20;61.54
72636;BME280;60679;48.888;15.544;2023-02-18T15:21:27;95956.13;;;12.17;61.76
72636;BME280;60679;48.888;15.544;2023-02-18T15:23:53;95968.88;;;12.05;61.80
72636;BME280;60679;48.888;15.544;2023-02-18T15:26:20;95961.03;;;11.92;62.16
72636;BME280;60679;48.888;15.544;2023-02-18T15:29:04;95964.22;;;11.77;62.04
72636;BME280;60679;48.888;15.544;2023-02-18T15:31:35;95971.53;;;11.77;62.10
72636;BME280;60679;48.888;15.544;2023-02-18T15:34:01;95973.16;;;11.78;62.29
72636;BME280;60679;48.888;15.544;2023-02-18T15:36:30;95954.94;;;11.62;62.31
72636;BME280;60679;48.888;15.544;2023-02-18T15:38:56;95958.97;;;11.47;62.72